Terminal Aerodrome Forecast
Issued by NWS Quad Cities IA IL

Home | Current Version | Previous Version | Text Only | Print | Product List | Glossary On
Versions: 1 2 3 4 5 6 7 8 9 10 11 12 13 14 15 16 17 18 19 20 21 22 23 24 25 26 27 28 29 30 31 32 33 34 35 36 37
000
FTUS43 KDVN 280900 AAB
TAFMLI
TAF AMD
KMLI 280935Z 2810/2906 02012G15KT P6SM BKN024 OVC050
     FM281200 36010KT P6SM SKC
     FM281500 36010KT P6SM SCT050
     FM290100 30004KT P6SM SKC=

USA.gov is the U.S. government's official web portal to all federal, state and local government web resources and services.